sensor_id;sensor_type;location;lat;lon;timestamp;P1;durP1;ratioP1;P2;durP2;ratioP2
8341;SDS011;4208;49.406;10.788;2022-08-21T00:02:12;3.10;;;2.90;;
8341;SDS011;4208;49.406;10.788;2022-08-21T00:04:42;3.65;;;3.33;;
8341;SDS011;4208;49.406;10.788;2022-08-21T00:07:23;5.05;;;4.20;;
8341;SDS011;4208;49.406;10.788;2022-08-21T00:09:52;5.90;;;4.28;;
8341;SDS011;4208;49.406;10.788;2022-08-21T00:12:21;5.05;;;4.03;;
8341;SDS011;4208;49.406;10.788;2022-08-21T00:14:52;7.65;;;4.03;;
8341;SDS011;4208;49.406;10.788;2022-08-21T00:17:24;4.60;;;3.63;;
8341;SDS011;4208;49.406;10.788;2022-08-21T00:19:53;4.18;;;3.67;;
8341;SDS011;4208;49.406;10.788;2022-08-21T00:22:21;5.05;;;3.95;;
8341;SDS011;4208;49.406;10.788;2022-08-21T00:24:50;5.88;;;4.00;;
8341;SDS011;4208;49.406;10.788;2022-08-21T00:27:19;5.47;;;4.28;;
8341;SDS011;4208;49.406;10.788;2022-08-21T00:29:48;7.40;;;4.72;;
8341;SDS011;4208;49.406;10.788;2022-08-21T00:32:20;5.82;;;4.40;;
8341;SDS011;4208;49.406;10.788;2022-08-21T00:34:49;8.23;;;4.20;;
8341;SDS011;4208;49.406;10.788;2022-08-21T00:37:19;5.45;;;4.15;;
8341;SDS011;4208;49.406;10.788;2022-08-21T00:39:49;3.70;;;3.40;;
8341;SDS011;4208;49.406;10.788;2022-08-21T00:42:18;4.15;;;3.70;;
8341;SDS011;4208;49.406;10.788;2022-08-21T00:44:47;3.75;;;3.35;;
8341;SDS011;4208;49.406;10.788;2022-08-21T00:47:18;3.58;;;3.17;;
8341;SDS011;4208;49.406;10.788;2022-08-21T00:49:49;3.53;;;3.22;;
8341;SDS011;4208;49.406;10.788;2022-08-21T00:52:19;4.00;;;3.30;;
8341;SDS011;4208;49.406;10.788;2022-08-21T00:54:52;3.92;;;3.55;;
8341;SDS011;4208;49.406;10.788;2022-08-21T00:57:25;5.05;;;3.80;;
8341;SDS011;4208;49.406;10.788;2022-08-21T00:59:57;3.72;;;3.42;;
8341;SDS011;4208;49.406;10.788;2022-08-21T01:02:28;5.90;;;3.90;;
8341;SDS011;4208;49.406;10.788;2022-08-21T01:04:58;6.53;;;3.42;;
8341;SDS011;4208;49.406;10.788;2022-08-21T01:07:27;3.63;;;3.15;;
8341;SDS011;4208;49.406;10.788;2022-08-21T01:09:57;4.75;;;3.55;;
8341;SDS011;4208;49.406;10.788;2022-08-21T01:12:26;3.83;;;3.30;;
8341;SDS011;4208;49.406;10.788;2022-08-21T01:14:55;4.55;;;3.58;;
8341;SDS011;4208;49.406;10.788;2022-08-21T01:17:24;4.18;;;3.78;;
8341;SDS011;4208;49.406;10.788;2022-08-21T01:19:56;4.05;;;3.35;;
8341;SDS011;4208;49.406;10.788;2022-08-21T01:22:28;4.32;;;3.78;;
8341;SDS011;4208;49.406;10.788;2022-08-21T01:24:57;3.83;;;3.53;;
8341;SDS011;4208;49.406;10.788;2022-08-21T01:27:26;3.67;;;3.38;;
8341;SDS011;4208;49.406;10.788;2022-08-21T01:29:56;3.90;;;3.50;;
8341;SDS011;4208;49.406;10.788;2022-08-21T01:32:32;4.82;;;3.97;;
8341;SDS011;4208;49.406;10.788;2022-08-21T01:35:02;3.83;;;3.47;;
8341;SDS011;4208;49.406;10.788;2022-08-21T01:37:33;4.00;;;3.70;;
8341;SDS011;4208;49.406;10.788;2022-08-21T01:40:02;4.88;;;4.10;;
8341;SDS011;4208;49.406;10.788;2022-08-21T01:42:33;3.85;;;3.40;;
8341;SDS011;4208;49.406;10.788;2022-08-21T01:45:02;3.90;;;3.47;;
8341;SDS011;4208;49.406;10.788;2022-08-21T01:47:32;3.85;;;3.45;;
8341;SDS011;4208;49.406;10.788;2022-08-21T01:50:02;3.45;;;3.15;;
8341;SDS011;4208;49.406;10.788;2022-08-21T01:52:33;3.72;;;3.42;;
8341;SDS011;4208;49.406;10.788;2022-08-21T01:55:02;4.78;;;3.70;;
8341;SDS011;4208;49.406;10.788;2022-08-21T01:57:32;4.10;;;3.70;;
8341;SDS011;4208;49.406;10.788;2022-08-21T02:00:03;3.70;;;3.40;;
8341;SDS011;4208;49.406;10.788;2022-08-21T02:02:38;4.30;;;3.45;;
8341;SDS011;4208;49.406;10.788;2022-08-21T02:05:08;3.50;;;3.20;;
8341;SDS011;4208;49.406;10.788;2022-08-21T02:07:41;3.70;;;3.40;;
8341;SDS011;4208;49.406;10.788;2022-08-21T02:10:12;4.28;;;3.60;;
8341;SDS011;4208;49.406;10.788;2022-08-21T02:12:42;3.97;;;3.15;;
8341;SDS011;4208;49.406;10.788;2022-08-21T02:15:11;3.83;;;3.00;;
8341;SDS011;4208;49.406;10.788;2022-08-21T02:17:40;3.55;;;3.25;;
8341;SDS011;4208;49.406;10.788;2022-08-21T02:20:26;3.75;;;3.13;;
8341;SDS011;4208;49.406;10.788;2022-08-21T02:23:06;4.10;;;3.35;;
8341;SDS011;4208;49.406;10.788;2022-08-21T02:25:37;4.25;;;3.60;;
8341;SDS011;4208;49.406;10.788;2022-08-21T02:28:08;9.80;;;4.20;;
8341;SDS011;4208;49.406;10.788;2022-08-21T02:30:45;7.43;;;3.55;;
8341;SDS011;4208;49.406;10.788;2022-08-21T02:33:15;6.00;;;4.22;;
8341;SDS011;4208;49.406;10.788;2022-08-21T02:35:44;7.25;;;3.85;;
8341;SDS011;4208;49.406;10.788;2022-08-21T02:38:16;55.15;;;5.30;;
8341;SDS011;4208;49.406;10.788;2022-08-21T02:40:48;5.03;;;3.85;;
8341;SDS011;4208;49.406;10.788;2022-08-21T02:43:19;6.35;;;3.60;;
8341;SDS011;4208;49.406;10.788;2022-08-21T02:45:49;6.55;;;3.90;;
8341;SDS011;4208;49.406;10.788;2022-08-21T02:48:20;7.68;;;3.35;;
8341;SDS011;4208;49.406;10.788;2022-08-21T02:50:52;3.72;;;3.42;;
8341;SDS011;4208;49.406;10.788;2022-08-21T02:53:23;4.65;;;3.85;;
8341;SDS011;4208;49.406;10.788;2022-08-21T02:55:52;5.47;;;3.50;;
8341;SDS011;4208;49.406;10.788;2022-08-21T02:58:23;6.90;;;4.07;;
8341;SDS011;4208;49.406;10.788;2022-08-21T03:00:55;4.22;;;3.30;;
8341;SDS011;4208;49.406;10.788;2022-08-21T03:03:25;6.97;;;3.60;;
8341;SDS011;4208;49.406;10.788;2022-08-21T03:05:55;4.30;;;3.90;;
8341;SDS011;4208;49.406;10.788;2022-08-21T03:08:25;4.45;;;3.78;;
8341;SDS011;4208;49.406;10.788;2022-08-21T03:10:53;5.18;;;3.75;;
8341;SDS011;4208;49.406;10.788;2022-08-21T03:13:22;4.70;;;3.70;;
8341;SDS011;4208;49.406;10.788;2022-08-21T03:15:51;4.30;;;3.90;;
8341;SDS011;4208;49.406;10.788;2022-08-21T03:18:20;4.38;;;3.55;;
8341;SDS011;4208;49.406;10.788;2022-08-21T03:20:49;3.80;;;3.10;;
8341;SDS011;4208;49.406;10.788;2022-08-21T03:23:18;3.50;;;3.10;;
8341;SDS011;4208;49.406;10.788;2022-08-21T03:25:48;4.78;;;3.35;;
8341;SDS011;4208;49.406;10.788;2022-08-21T03:28:21;3.63;;;3.33;;
8341;SDS011;4208;49.406;10.788;2022-08-21T03:30:50;5.35;;;3.70;;
8341;SDS011;4208;49.406;10.788;2022-08-21T03:33:20;5.22;;;3.85;;
8341;SDS011;4208;49.406;10.788;2022-08-21T03:35:53;5.38;;;4.25;;
8341;SDS011;4208;49.406;10.788;2022-08-21T03:38:26;9.80;;;4.75;;
8341;SDS011;4208;49.406;10.788;2022-08-21T03:40:57;8.45;;;4.57;;
8341;SDS011;4208;49.406;10.788;2022-08-21T03:43:26;4.20;;;3.65;;
8341;SDS011;4208;49.406;10.788;2022-08-21T03:45:58;4.88;;;3.80;;
8341;SDS011;4208;49.406;10.788;2022-08-21T03:48:28;5.30;;;4.65;;
8341;SDS011;4208;49.406;10.788;2022-08-21T03:50:57;4.70;;;4.20;;
8341;SDS011;4208;49.406;10.788;2022-08-21T03:53:26;4.70;;;3.60;;
8341;SDS011;4208;49.406;10.788;2022-08-21T03:55:57;4.35;;;3.92;;
8341;SDS011;4208;49.406;10.788;2022-08-21T03:58:26;4.57;;;3.75;;
8341;SDS011;4208;49.406;10.788;2022-08-21T04:00:56;4.43;;;3.38;;
8341;SDS011;4208;49.406;10.788;2022-08-21T04:03:28;4.05;;;3.70;;
8341;SDS011;4208;49.406;10.788;2022-08-21T04:05:56;5.82;;;3.65;;
8341;SDS011;4208;49.406;10.788;2022-08-21T04:08:26;6.43;;;4.35;;
8341;SDS011;4208;49.406;10.788;2022-08-21T04:10:55;6.03;;;4.50;;
8341;SDS011;4208;49.406;10.788;2022-08-21T04:13:26;5.38;;;4.50;;
8341;SDS011;4208;49.406;10.788;2022-08-21T04:15:56;6.43;;;4.30;;
8341;SDS011;4208;49.406;10.788;2022-08-21T04:18:26;4.82;;;4.40;;
8341;SDS011;4208;49.406;10.788;2022-08-21T04:20:54;6.07;;;4.28;;
8341;SDS011;4208;49.406;10.788;2022-08-21T04:23:25;6.38;;;4.50;;
8341;SDS011;4208;49.406;10.788;2022-08-21T04:25:55;6.57;;;4.40;;
8341;SDS011;4208;49.406;10.788;2022-08-21T04:28:26;5.47;;;4.65;;
8341;SDS011;4208;49.406;10.788;2022-08-21T04:30:57;5.35;;;4.85;;
8341;SDS011;4208;49.406;10.788;2022-08-21T04:33:26;8.20;;;5.43;;
8341;SDS011;4208;49.406;10.788;2022-08-21T04:35:55;7.20;;;4.70;;
8341;SDS011;4208;49.406;10.788;2022-08-21T04:38:23;5.13;;;4.45;;
8341;SDS011;4208;49.406;10.788;2022-08-21T04:41:03;5.45;;;4.93;;
8341;SDS011;4208;49.406;10.788;2022-08-21T04:43:33;3.95;;;3.55;;
8341;SDS011;4208;49.406;10.788;2022-08-21T04:46:02;4.18;;;3.78;;
8341;SDS011;4208;49.406;10.788;2022-08-21T04:48:31;4.28;;;3.88;;
8341;SDS011;4208;49.406;10.788;2022-08-21T04:51:01;8.82;;;4.25;;
8341;SDS011;4208;49.406;10.788;2022-08-21T04:53:35;7.18;;;4.50;;
8341;SDS011;4208;49.406;10.788;2022-08-21T04:56:08;8.50;;;5.93;;
8341;SDS011;4208;49.406;10.788;2022-08-21T04:58:40;9.57;;;5.90;;
8341;SDS011;4208;49.406;10.788;2022-08-21T05:01:19;10.23;;;5.57;;
8341;SDS011;4208;49.406;10.788;2022-08-21T05:03:50;11.45;;;5.30;;
8341;SDS011;4208;49.406;10.788;2022-08-21T05:06:22;14.40;;;6.03;;
8341;SDS011;4208;49.406;10.788;2022-08-21T05:08:52;19.00;;;6.90;;
8341;SDS011;4208;49.406;10.788;2022-08-21T05:11:29;11.65;;;7.28;;
8341;SDS011;4208;49.406;10.788;2022-08-21T05:13:59;18.52;;;8.23;;
8341;SDS011;4208;49.406;10.788;2022-08-21T05:16:28;14.18;;;8.50;;
8341;SDS011;4208;49.406;10.788;2022-08-21T05:19:04;19.67;;;9.85;;
8341;SDS011;4208;49.406;10.788;2022-08-21T05:21:33;17.05;;;10.18;;
8341;SDS011;4208;49.406;10.788;2022-08-21T05:24:03;18.60;;;8.45;;
8341;SDS011;4208;49.406;10.788;2022-08-21T05:26:33;16.00;;;8.95;;
8341;SDS011;4208;49.406;10.788;2022-08-21T05:29:12;17.63;;;12.48;;
8341;SDS011;4208;49.406;10.788;2022-08-21T05:31:45;33.08;;;10.52;;
8341;SDS011;4208;49.406;10.788;2022-08-21T05:34:17;14.88;;;10.07;;
8341;SDS011;4208;49.406;10.788;2022-08-21T05:36:47;16.80;;;9.05;;
8341;SDS011;4208;49.406;10.788;2022-08-21T05:39:16;29.80;;;10.35;;
8341;SDS011;4208;49.406;10.788;2022-08-21T05:41:46;15.52;;;9.77;;
8341;SDS011;4208;49.406;10.788;2022-08-21T05:44:16;17.33;;;11.30;;
8341;SDS011;4208;49.406;10.788;2022-08-21T05:46:46;16.02;;;10.00;;
8341;SDS011;4208;49.406;10.788;2022-08-21T05:49:15;16.40;;;10.88;;
8341;SDS011;4208;49.406;10.788;2022-08-21T05:51:44;16.45;;;12.48;;
8341;SDS011;4208;49.406;10.788;2022-08-21T05:54:13;19.85;;;15.73;;
8341;SDS011;4208;49.406;10.788;2022-08-21T05:56:41;21.17;;;16.77;;
8341;SDS011;4208;49.406;10.788;2022-08-21T05:59:12;21.95;;;16.90;;
8341;SDS011;4208;49.406;10.788;2022-08-21T06:01:41;20.95;;;16.60;;
8341;SDS011;4208;49.406;10.788;2022-08-21T06:04:10;20.23;;;16.55;;
8341;SDS011;4208;49.406;10.788;2022-08-21T06:06:39;19.25;;;16.25;;
8341;SDS011;4208;49.406;10.788;2022-08-21T06:09:08;20.05;;;16.13;;
8341;SDS011;4208;49.406;10.788;2022-08-21T06:11:36;21.17;;;16.75;;
8341;SDS011;4208;49.406;10.788;2022-08-21T06:14:05;21.08;;;17.35;;
8341;SDS011;4208;49.406;10.788;2022-08-21T06:16:36;20.45;;;15.73;;
8341;SDS011;4208;49.406;10.788;2022-08-21T06:19:04;19.48;;;15.88;;
8341;SDS011;4208;49.406;10.788;2022-08-21T06:21:33;18.40;;;15.25;;
8341;SDS011;4208;49.406;10.788;2022-08-21T06:24:02;20.85;;;17.08;;
8341;SDS011;4208;49.406;10.788;2022-08-21T06:26:31;20.25;;;17.13;;
8341;SDS011;4208;49.406;10.788;2022-08-21T06:29:00;20.85;;;15.77;;
8341;SDS011;4208;49.406;10.788;2022-08-21T06:31:29;20.35;;;16.77;;
8341;SDS011;4208;49.406;10.788;2022-08-21T06:34:01;19.17;;;16.20;;
8341;SDS011;4208;49.406;10.788;2022-08-21T06:36:30;20.10;;;16.75;;
8341;SDS011;4208;49.406;10.788;2022-08-21T06:38:58;17.67;;;15.73;;
8341;SDS011;4208;49.406;10.788;2022-08-21T06:41:42;18.92;;;16.05;;
8341;SDS011;4208;49.406;10.788;2022-08-21T06:44:11;20.98;;;16.92;;
8341;SDS011;4208;49.406;10.788;2022-08-21T06:46:41;19.40;;;16.33;;
8341;SDS011;4208;49.406;10.788;2022-08-21T06:49:15;20.90;;;18.10;;
8341;SDS011;4208;49.406;10.788;2022-08-21T06:51:47;21.95;;;17.45;;
8341;SDS011;4208;49.406;10.788;2022-08-21T06:54:16;21.20;;;18.25;;
8341;SDS011;4208;49.406;10.788;2022-08-21T06:56:45;21.42;;;17.50;;
8341;SDS011;4208;49.406;10.788;2022-08-21T06:59:13;21.83;;;18.83;;
8341;SDS011;4208;49.406;10.788;2022-08-21T07:01:42;19.85;;;17.38;;
8341;SDS011;4208;49.406;10.788;2022-08-21T07:04:11;21.70;;;18.67;;
8341;SDS011;4208;49.406;10.788;2022-08-21T07:06:41;23.40;;;17.77;;
8341;SDS011;4208;49.406;10.788;2022-08-21T07:09:10;22.67;;;18.40;;
8341;SDS011;4208;49.406;10.788;2022-08-21T07:11:38;23.02;;;18.02;;
8341;SDS011;4208;49.406;10.788;2022-08-21T07:14:13;25.92;;;18.40;;
8341;SDS011;4208;49.406;10.788;2022-08-21T07:16:46;23.63;;;17.63;;
8341;SDS011;4208;49.406;10.788;2022-08-21T07:19:15;18.90;;;15.18;;
8341;SDS011;4208;49.406;10.788;2022-08-21T07:21:45;21.63;;;17.27;;
8341;SDS011;4208;49.406;10.788;2022-08-21T07:24:14;19.10;;;16.58;;
8341;SDS011;4208;49.406;10.788;2022-08-21T07:26:43;17.95;;;15.02;;
8341;SDS011;4208;49.406;10.788;2022-08-21T07:29:12;22.88;;;18.33;;
8341;SDS011;4208;49.406;10.788;2022-08-21T07:31:41;21.27;;;16.45;;
8341;SDS011;4208;49.406;10.788;2022-08-21T07:34:10;18.92;;;16.05;;
8341;SDS011;4208;49.406;10.788;2022-08-21T07:36:39;20.35;;;17.17;;
8341;SDS011;4208;49.406;10.788;2022-08-21T07:39:09;21.02;;;17.17;;
8341;SDS011;4208;49.406;10.788;2022-08-21T07:41:37;17.58;;;15.50;;
8341;SDS011;4208;49.406;10.788;2022-08-21T07:44:06;18.23;;;15.68;;
8341;SDS011;4208;49.406;10.788;2022-08-21T07:46:38;17.98;;;14.00;;
8341;SDS011;4208;49.406;10.788;2022-08-21T07:49:07;16.67;;;14.88;;
8341;SDS011;4208;49.406;10.788;2022-08-21T07:51:36;18.00;;;14.50;;
8341;SDS011;4208;49.406;10.788;2022-08-21T07:54:04;17.73;;;14.63;;
8341;SDS011;4208;49.406;10.788;2022-08-21T07:56:34;17.90;;;15.27;;
8341;SDS011;4208;49.406;10.788;2022-08-21T07:59:03;16.10;;;14.40;;
8341;SDS011;4208;49.406;10.788;2022-08-21T08:01:32;22.83;;;16.52;;
8341;SDS011;4208;49.406;10.788;2022-08-21T08:04:01;18.10;;;16.00;;
8341;SDS011;4208;49.406;10.788;2022-08-21T08:06:30;18.92;;;15.50;;
8341;SDS011;4208;49.406;10.788;2022-08-21T08:08:58;16.17;;;14.27;;
8341;SDS011;4208;49.406;10.788;2022-08-21T08:11:29;18.70;;;14.55;;
8341;SDS011;4208;49.406;10.788;2022-08-21T08:13:59;17.20;;;14.93;;
8341;SDS011;4208;49.406;10.788;2022-08-21T08:16:30;21.23;;;18.02;;
8341;SDS011;4208;49.406;10.788;2022-08-21T08:18:59;18.80;;;15.75;;
8341;SDS011;4208;49.406;10.788;2022-08-21T08:21:28;16.85;;;14.65;;
8341;SDS011;4208;49.406;10.788;2022-08-21T08:23:59;16.33;;;14.13;;
8341;SDS011;4208;49.406;10.788;2022-08-21T08:26:45;16.35;;;14.10;;
8341;SDS011;4208;49.406;10.788;2022-08-21T08:29:21;14.80;;;13.18;;
8341;SDS011;4208;49.406;10.788;2022-08-21T08:31:50;16.75;;;13.23;;
8341;SDS011;4208;49.406;10.788;2022-08-21T08:34:18;15.35;;;12.68;;
8341;SDS011;4208;49.406;10.788;2022-08-21T08:36:51;13.95;;;12.45;;
8341;SDS011;4208;49.406;10.788;2022-08-21T08:39:21;14.48;;;12.90;;
8341;SDS011;4208;49.406;10.788;2022-08-21T08:41:58;14.18;;;12.77;;
8341;SDS011;4208;49.406;10.788;2022-08-21T08:44:55;14.57;;;12.88;;
8341;SDS011;4208;49.406;10.788;2022-08-21T08:47:27;13.00;;;11.48;;
8341;SDS011;4208;49.406;10.788;2022-08-21T08:50:00;14.20;;;11.32;;
8341;SDS011;4208;49.406;10.788;2022-08-21T08:52:32;13.55;;;10.70;;
8341;SDS011;4208;49.406;10.788;2022-08-21T08:55:04;12.48;;;11.18;;
8341;SDS011;4208;49.406;10.788;2022-08-21T08:57:37;11.32;;;10.15;;
8341;SDS011;4208;49.406;10.788;2022-08-21T09:00:17;11.88;;;10.68;;
8341;SDS011;4208;49.406;10.788;2022-08-21T09:02:48;11.98;;;10.43;;
8341;SDS011;4208;49.406;10.788;2022-08-21T09:05:21;11.88;;;10.60;;
8341;SDS011;4208;49.406;10.788;2022-08-21T09:08:09;12.52;;;11.23;;
8341;SDS011;4208;49.406;10.788;2022-08-21T09:11:04;11.73;;;10.45;;
8341;SDS011;4208;49.406;10.788;2022-08-21T09:13:42;12.23;;;10.43;;
8341;SDS011;4208;49.406;10.788;2022-08-21T09:16:22;12.02;;;10.75;;
8341;SDS011;4208;49.406;10.788;2022-08-21T09:19:02;11.10;;;9.68;;
8341;SDS011;4208;49.406;10.788;2022-08-21T09:21:38;10.80;;;9.73;;
8341;SDS011;4208;49.406;10.788;2022-08-21T09:24:19;10.75;;;9.65;;
8341;SDS011;4208;49.406;10.788;2022-08-21T09:27:00;10.63;;;9.35;;
8341;SDS011;4208;49.406;10.788;2022-08-21T09:29:34;10.95;;;9.75;;
8341;SDS011;4208;49.406;10.788;2022-08-21T09:32:09;9.88;;;8.88;;
8341;SDS011;4208;49.406;10.788;2022-08-21T09:34:54;12.10;;;10.80;;
8341;SDS011;4208;49.406;10.788;2022-08-21T09:37:25;10.07;;;9.15;;
8341;SDS011;4208;49.406;10.788;2022-08-21T09:39:56;10.45;;;8.73;;
8341;SDS011;4208;49.406;10.788;2022-08-21T09:42:28;9.98;;;8.98;;
8341;SDS011;4208;49.406;10.788;2022-08-21T09:45:10;8.38;;;7.57;;
8341;SDS011;4208;49.406;10.788;2022-08-21T09:47:42;9.43;;;8.43;;
8341;SDS011;4208;49.406;10.788;2022-08-21T09:50:13;7.93;;;7.13;;
8341;SDS011;4208;49.406;10.788;2022-08-21T09:52:44;8.15;;;7.35;;
8341;SDS011;4208;49.406;10.788;2022-08-21T09:55:19;7.70;;;6.90;;
8341;SDS011;4208;49.406;10.788;2022-08-21T09:58:21;8.95;;;7.72;;
8341;SDS011;4208;49.406;10.788;2022-08-21T10:01:00;8.27;;;7.40;;
8341;SDS011;4208;49.406;10.788;2022-08-21T10:03:32;7.70;;;7.00;;
8341;SDS011;4208;49.406;10.788;2022-08-21T10:06:02;8.95;;;8.05;;
8341;SDS011;4208;49.406;10.788;2022-08-21T10:08:36;7.60;;;6.90;;
8341;SDS011;4208;49.406;10.788;2022-08-21T10:11:07;7.20;;;6.50;;
8341;SDS011;4208;49.406;10.788;2022-08-21T10:13:42;8.98;;;6.57;;
8341;SDS011;4208;49.406;10.788;2022-08-21T10:16:24;6.22;;;5.63;;
8341;SDS011;4208;49.406;10.788;2022-08-21T10:19:05;7.35;;;6.65;;
8341;SDS011;4208;49.406;10.788;2022-08-21T10:21:57;7.50;;;6.75;;
8341;SDS011;4208;49.406;10.788;2022-08-21T10:24:31;7.03;;;6.32;;
8341;SDS011;4208;49.406;10.788;2022-08-21T10:27:06;7.70;;;6.70;;
8341;SDS011;4208;49.406;10.788;2022-08-21T10:29:45;6.75;;;6.10;;
8341;SDS011;4208;49.406;10.788;2022-08-21T10:32:23;7.55;;;5.82;;
8341;SDS011;4208;49.406;10.788;2022-08-21T10:35:02;7.20;;;6.50;;
8341;SDS011;4208;49.406;10.788;2022-08-21T10:37:48;6.53;;;5.93;;
8341;SDS011;4208;49.406;10.788;2022-08-21T10:40:27;5.95;;;5.35;;
8341;SDS011;4208;49.406;10.788;2022-08-21T10:43:04;6.25;;;5.65;;
8341;SDS011;4208;49.406;10.788;2022-08-21T10:45:46;7.43;;;6.72;;
8341;SDS011;4208;49.406;10.788;2022-08-21T10:48:24;6.82;;;6.18;;
8341;SDS011;4208;49.406;10.788;2022-08-21T10:51:06;6.85;;;6.07;;
8341;SDS011;4208;49.406;10.788;2022-08-21T10:56:29;5.50;;;5.00;;
8341;SDS011;4208;49.406;10.788;2022-08-21T11:01:53;5.60;;;5.07;;
8341;SDS011;4208;49.406;10.788;2022-08-21T11:04:30;6.25;;;5.60;;
8341;SDS011;4208;49.406;10.788;2022-08-21T11:07:18;6.20;;;4.88;;
8341;SDS011;4208;49.406;10.788;2022-08-21T11:09:50;5.90;;;4.70;;
8341;SDS011;4208;49.406;10.788;2022-08-21T11:12:25;4.78;;;4.28;;
8341;SDS011;4208;49.406;10.788;2022-08-21T11:15:03;4.65;;;4.25;;
8341;SDS011;4208;49.406;10.788;2022-08-21T11:17:58;4.40;;;4.00;;
8341;SDS011;4208;49.406;10.788;2022-08-21T11:20:38;4.85;;;4.20;;
8341;SDS011;4208;49.406;10.788;2022-08-21T11:23:14;5.03;;;4.20;;
8341;SDS011;4208;49.406;10.788;2022-08-21T11:25:49;4.22;;;3.92;;
8341;SDS011;4208;49.406;10.788;2022-08-21T11:28:22;4.15;;;3.75;;
8341;SDS011;4208;49.406;10.788;2022-08-21T11:30:57;4.10;;;3.70;;
8341;SDS011;4208;49.406;10.788;2022-08-21T11:33:37;5.05;;;4.10;;
8341;SDS011;4208;49.406;10.788;2022-08-21T11:36:21;4.35;;;3.95;;
8341;SDS011;4208;49.406;10.788;2022-08-21T11:39:00;4.20;;;3.80;;
8341;SDS011;4208;49.406;10.788;2022-08-21T11:41:36;4.13;;;3.50;;
8341;SDS011;4208;49.406;10.788;2022-08-21T11:44:10;4.20;;;3.80;;
8341;SDS011;4208;49.406;10.788;2022-08-21T11:46:47;5.47;;;4.00;;
8341;SDS011;4208;49.406;10.788;2022-08-21T11:49:28;5.97;;;4.72;;
8341;SDS011;4208;49.406;10.788;2022-08-21T11:52:13;4.55;;;3.92;;
8341;SDS011;4208;49.406;10.788;2022-08-21T11:54:48;4.55;;;3.95;;
8341;SDS011;4208;49.406;10.788;2022-08-21T11:57:22;4.45;;;4.05;;
8341;SDS011;4208;49.406;10.788;2022-08-21T11:59:54;4.20;;;3.80;;
8341;SDS011;4208;49.406;10.788;2022-08-21T12:02:28;4.45;;;4.00;;
8341;SDS011;4208;49.406;10.788;2022-08-21T12:05:03;3.75;;;3.45;;
8341;SDS011;4208;49.406;10.788;2022-08-21T12:07:36;4.18;;;3.70;;
8341;SDS011;4208;49.406;10.788;2022-08-21T12:10:09;4.30;;;3.90;;
8341;SDS011;4208;49.406;10.788;2022-08-21T12:12:40;3.95;;;3.53;;
8341;SDS011;4208;49.406;10.788;2022-08-21T12:15:16;5.10;;;4.25;;
8341;SDS011;4208;49.406;10.788;2022-08-21T12:17:54;4.60;;;4.18;;
8341;SDS011;4208;49.406;10.788;2022-08-21T12:20:39;6.10;;;4.57;;
8341;SDS011;4208;49.406;10.788;2022-08-21T12:23:18;3.85;;;3.55;;
8341;SDS011;4208;49.406;10.788;2022-08-21T12:26:02;4.43;;;4.03;;
8341;SDS011;4208;49.406;10.788;2022-08-21T12:28:41;4.40;;;4.00;;
8341;SDS011;4208;49.406;10.788;2022-08-21T12:31:17;5.22;;;4.53;;
8341;SDS011;4208;49.406;10.788;2022-08-21T12:33:50;4.88;;;4.07;;
8341;SDS011;4208;49.406;10.788;2022-08-21T12:36:23;4.80;;;4.30;;
8341;SDS011;4208;49.406;10.788;2022-08-21T12:38:56;5.00;;;4.50;;
8341;SDS011;4208;49.406;10.788;2022-08-21T12:41:31;3.80;;;3.50;;
8341;SDS011;4208;49.406;10.788;2022-08-21T12:44:10;4.18;;;3.78;;
8341;SDS011;4208;49.406;10.788;2022-08-21T12:46:44;3.97;;;3.55;;
8341;SDS011;4208;49.406;10.788;2022-08-21T12:49:16;4.45;;;3.90;;
8341;SDS011;4208;49.406;10.788;2022-08-21T12:51:54;3.67;;;3.00;;
8341;SDS011;4208;49.406;10.788;2022-08-21T12:54:26;3.90;;;3.50;;
8341;SDS011;4208;49.406;10.788;2022-08-21T12:56:59;3.95;;;3.38;;
8341;SDS011;4208;49.406;10.788;2022-08-21T12:59:30;3.60;;;3.30;;
8341;SDS011;4208;49.406;10.788;2022-08-21T13:02:00;3.97;;;3.58;;
8341;SDS011;4208;49.406;10.788;2022-08-21T13:04:39;4.03;;;3.53;;
8341;SDS011;4208;49.406;10.788;2022-08-21T13:07:10;4.28;;;3.88;;
8341;SDS011;4208;49.406;10.788;2022-08-21T13:09:43;4.80;;;4.30;;
8341;SDS011;4208;49.406;10.788;2022-08-21T13:12:16;4.53;;;4.13;;
8341;SDS011;4208;49.406;10.788;2022-08-21T13:14:48;4.55;;;4.07;;
8341;SDS011;4208;49.406;10.788;2022-08-21T13:17:19;4.30;;;3.88;;
8341;SDS011;4208;49.406;10.788;2022-08-21T13:19:56;5.32;;;4.07;;
8341;SDS011;4208;49.406;10.788;2022-08-21T13:22:27;4.57;;;4.03;;
8341;SDS011;4208;49.406;10.788;2022-08-21T13:25:00;5.35;;;4.18;;
8341;SDS011;4208;49.406;10.788;2022-08-21T13:27:34;5.15;;;3.92;;
8341;SDS011;4208;49.406;10.788;2022-08-21T13:30:05;4.43;;;3.90;;
8341;SDS011;4208;49.406;10.788;2022-08-21T13:32:37;4.85;;;3.97;;
8341;SDS011;4208;49.406;10.788;2022-08-21T13:35:13;4.30;;;3.90;;
8341;SDS011;4208;49.406;10.788;2022-08-21T13:37:45;4.43;;;4.03;;
8341;SDS011;4208;49.406;10.788;2022-08-21T13:40:16;5.47;;;4.90;;
8341;SDS011;4208;49.406;10.788;2022-08-21T13:42:49;4.80;;;4.28;;
8341;SDS011;4208;49.406;10.788;2022-08-21T13:45:22;4.40;;;4.00;;
8341;SDS011;4208;49.406;10.788;2022-08-21T13:47:54;5.45;;;3.85;;
8341;SDS011;4208;49.406;10.788;2022-08-21T13:50:24;4.00;;;3.60;;
8341;SDS011;4208;49.406;10.788;2022-08-21T13:52:55;3.97;;;3.58;;
8341;SDS011;4208;49.406;10.788;2022-08-21T13:55:33;3.75;;;3.42;;
8341;SDS011;4208;49.406;10.788;2022-08-21T13:58:06;3.88;;;3.30;;
8341;SDS011;4208;49.406;10.788;2022-08-21T14:00:43;3.88;;;3.47;;
8341;SDS011;4208;49.406;10.788;2022-08-21T14:03:23;3.88;;;3.22;;
8341;SDS011;4208;49.406;10.788;2022-08-21T14:05:56;4.07;;;3.60;;
8341;SDS011;4208;49.406;10.788;2022-08-21T14:08:27;3.42;;;3.13;;
8341;SDS011;4208;49.406;10.788;2022-08-21T14:11:00;4.57;;;3.70;;
8341;SDS011;4208;49.406;10.788;2022-08-21T14:13:37;5.50;;;3.50;;
8341;SDS011;4208;49.406;10.788;2022-08-21T14:16:12;4.18;;;3.78;;
8341;SDS011;4208;49.406;10.788;2022-08-21T14:18:44;4.50;;;3.53;;
8341;SDS011;4208;49.406;10.788;2022-08-21T14:21:23;6.45;;;4.70;;
8341;SDS011;4208;49.406;10.788;2022-08-21T14:23:59;3.75;;;3.35;;
8341;SDS011;4208;49.406;10.788;2022-08-21T14:26:31;3.75;;;3.45;;
8341;SDS011;4208;49.406;10.788;2022-08-21T14:29:06;4.82;;;4.32;;
8341;SDS011;4208;49.406;10.788;2022-08-21T14:31:36;3.70;;;3.33;;
8341;SDS011;4208;49.406;10.788;2022-08-21T14:34:12;4.30;;;3.33;;
8341;SDS011;4208;49.406;10.788;2022-08-21T14:36:46;4.90;;;3.35;;
8341;SDS011;4208;49.406;10.788;2022-08-21T14:39:16;4.15;;;3.60;;
8341;SDS011;4208;49.406;10.788;2022-08-21T14:41:44;3.83;;;3.33;;
8341;SDS011;4208;49.406;10.788;2022-08-21T14:44:16;5.22;;;3.30;;
8341;SDS011;4208;49.406;10.788;2022-08-21T14:46:46;3.45;;;3.15;;
8341;SDS011;4208;49.406;10.788;2022-08-21T14:49:23;5.82;;;3.58;;
8341;SDS011;4208;49.406;10.788;2022-08-21T14:51:55;4.50;;;3.28;;
8341;SDS011;4208;49.406;10.788;2022-08-21T14:54:26;3.47;;;3.17;;
8341;SDS011;4208;49.406;10.788;2022-08-21T14:56:58;3.25;;;2.40;;
8341;SDS011;4208;49.406;10.788;2022-08-21T14:59:30;3.78;;;2.80;;
8341;SDS011;4208;49.406;10.788;2022-08-21T15:02:00;2.95;;;2.63;;
8341;SDS011;4208;49.406;10.788;2022-08-21T15:04:31;3.88;;;2.63;;
8341;SDS011;4208;49.406;10.788;2022-08-21T15:07:00;2.60;;;2.25;;
8341;SDS011;4208;49.406;10.788;2022-08-21T15:09:29;2.92;;;2.63;;
8341;SDS011;4208;49.406;10.788;2022-08-21T15:11:58;3.92;;;2.65;;
8341;SDS011;4208;49.406;10.788;2022-08-21T15:14:29;2.58;;;2.38;;
8341;SDS011;4208;49.406;10.788;2022-08-21T15:17:01;3.35;;;2.72;;
8341;SDS011;4208;49.406;10.788;2022-08-21T15:19:31;5.25;;;2.97;;
8341;SDS011;4208;49.406;10.788;2022-08-21T15:22:01;3.38;;;3.08;;
8341;SDS011;4208;49.406;10.788;2022-08-21T15:24:31;4.05;;;3.20;;
8341;SDS011;4208;49.406;10.788;2022-08-21T15:27:00;2.80;;;2.50;;
8341;SDS011;4208;49.406;10.788;2022-08-21T15:29:32;3.95;;;3.10;;
8341;SDS011;4208;49.406;10.788;2022-08-21T15:32:02;3.58;;;2.95;;